createdAt,value
2019-03-10T00:01:58.713Z,4.33
2019-03-10T00:04:26.157Z,4.03
2019-03-10T00:06:53.614Z,4.30
2019-03-10T00:09:21.077Z,4.40
2019-03-10T00:11:48.535Z,4.00
2019-03-10T00:14:16.095Z,4.10
2019-03-10T00:16:43.519Z,4.87
2019-03-10T00:19:10.951Z,3.77
2019-03-10T00:21:39.276Z,4.87
2019-03-10T00:24:08.609Z,4.40
2019-03-10T00:26:36.180Z,3.70
2019-03-10T00:29:03.643Z,4.70
2019-03-10T00:31:31.105Z,4.62
2019-03-10T00:33:58.595Z,5.50
2019-03-10T00:36:26.092Z,5.20
2019-03-10T00:39:23.289Z,4.60
2019-03-10T00:41:56.272Z,4.73
2019-03-10T00:44:44.543Z,5.45
2019-03-10T00:47:37.106Z,5.50
2019-03-10T00:50:38.106Z,4.25
2019-03-10T00:53:05.562Z,5.57
2019-03-10T00:55:32.997Z,4.50
2019-03-10T00:58:01.431Z,4.60
2019-03-10T01:00:28.873Z,4.40
2019-03-10T01:02:56.342Z,5.15
2019-03-10T01:05:23.774Z,5.83
2019-03-10T01:07:51.234Z,5.53
2019-03-10T01:10:19.686Z,5.67
2019-03-10T01:12:47.207Z,6.65
2019-03-10T01:15:15.598Z,5.37
2019-03-10T01:17:43.031Z,5.37
2019-03-10T01:20:10.490Z,5.40
2019-03-10T01:22:38.862Z,5.00
2019-03-10T01:25:08.273Z,6.40
2019-03-10T01:27:35.709Z,6.20
2019-03-10T01:30:03.185Z,5.57
2019-03-10T01:32:34.266Z,5.90
2019-03-10T01:35:04.362Z,5.67
2019-03-10T01:37:31.799Z,6.50
2019-03-10T01:39:59.234Z,5.70
2019-03-10T01:42:26.729Z,6.57
2019-03-10T01:44:54.984Z,5.43
2019-03-10T01:47:22.508Z,6.25
2019-03-10T01:49:49.952Z,5.47
2019-03-10T01:52:17.404Z,5.40
2019-03-10T01:54:44.929Z,5.60
2019-03-10T01:57:12.359Z,5.33
2019-03-10T01:59:39.832Z,5.17
2019-03-10T02:02:07.269Z,5.15
2019-03-10T02:04:34.714Z,5.10
2019-03-10T02:07:02.267Z,4.60
2019-03-10T02:09:29.741Z,5.10
2019-03-10T02:11:57.181Z,6.17
2019-03-10T02:14:24.671Z,5.20
2019-03-10T02:16:52.091Z,4.80
2019-03-10T02:19:19.529Z,5.50
2019-03-10T02:21:47.032Z,5.00
2019-03-10T02:24:23.466Z,5.40
2019-03-10T02:26:41.948Z,5.22
2019-03-10T02:29:09.405Z,6.00
2019-03-10T02:31:37.550Z,5.63
2019-03-10T02:34:04.985Z,4.73
2019-03-10T02:36:32.439Z,5.60
2019-03-10T02:38:59.875Z,5.57
2019-03-10T02:41:27.352Z,5.40
2019-03-10T02:43:54.801Z,5.15
2019-03-10T02:46:22.267Z,4.83
2019-03-10T02:48:52.689Z,5.40
2019-03-10T02:51:20.189Z,5.90
2019-03-10T02:53:47.644Z,5.05
2019-03-10T02:56:15.089Z,5.35
2019-03-10T02:58:42.543Z,4.60
2019-03-10T03:01:10.002Z,4.87
2019-03-10T03:03:37.461Z,5.20
2019-03-10T03:06:04.920Z,4.90
2019-03-10T03:08:32.377Z,4.87
2019-03-10T03:10:59.825Z,4.77
2019-03-10T03:13:27.373Z,5.43
2019-03-10T03:15:54.773Z,5.80
2019-03-10T03:18:22.233Z,4.73
2019-03-10T03:20:49.655Z,5.70
2019-03-10T03:23:17.107Z,4.55
2019-03-10T03:25:44.577Z,5.13
2019-03-10T03:28:12.020Z,4.30
2019-03-10T03:30:39.571Z,5.30
2019-03-10T03:33:06.932Z,4.70
2019-03-10T03:35:56.857Z,4.90
2019-03-10T03:38:35.514Z,4.93
2019-03-10T03:41:08.837Z,4.43
2019-03-10T03:43:36.282Z,4.60
2019-03-10T03:46:03.735Z,4.03
2019-03-10T03:48:32.215Z,4.53
2019-03-10T03:50:59.695Z,3.90
2019-03-10T03:53:27.164Z,3.87
2019-03-10T03:55:54.628Z,4.40
2019-03-10T03:58:22.110Z,4.10
2019-03-10T04:00:49.561Z,3.53
2019-03-10T04:03:17.538Z,3.50
2019-03-10T04:05:44.975Z,3.87
2019-03-10T04:08:12.416Z,3.60
2019-03-10T04:10:39.876Z,3.40
2019-03-10T04:13:07.337Z,3.23
2019-03-10T04:15:34.782Z,3.50
2019-03-10T04:18:02.342Z,3.78
2019-03-10T04:20:29.793Z,2.90
2019-03-10T04:22:57.256Z,3.87
2019-03-10T04:25:25.219Z,3.27
2019-03-10T04:27:52.748Z,3.07
2019-03-10T04:30:20.192Z,3.05
2019-03-10T04:32:47.649Z,3.63
2019-03-10T04:35:15.079Z,3.47
2019-03-10T04:37:42.521Z,3.35
2019-03-10T04:40:09.987Z,3.17
2019-03-10T04:42:37.432Z,3.17
2019-03-10T04:45:04.856Z,3.70
2019-03-10T04:47:32.550Z,3.03
2019-03-10T04:49:59.970Z,2.83
2019-03-10T04:52:27.426Z,3.07
2019-03-10T04:55:00.360Z,2.93
2019-03-10T04:57:28.556Z,3.33
2019-03-10T04:59:55.992Z,3.00
2019-03-10T05:02:24.126Z,3.40
2019-03-10T05:04:51.582Z,2.93
2019-03-10T05:07:19.017Z,3.37
2019-03-10T05:09:46.477Z,3.22
2019-03-10T05:12:14.715Z,2.70
2019-03-10T05:14:42.222Z,4.73
2019-03-10T05:17:09.674Z,3.47
2019-03-10T05:19:37.112Z,3.47
2019-03-10T05:22:04.539Z,3.30
2019-03-10T05:24:32.619Z,3.77
2019-03-10T05:27:00.059Z,3.90
2019-03-10T05:29:27.473Z,3.53
2019-03-10T05:31:54.932Z,3.33
2019-03-10T05:34:22.396Z,3.93
2019-03-10T05:36:49.845Z,2.60
2019-03-10T05:39:17.266Z,2.90
2019-03-10T05:41:44.718Z,2.95
2019-03-10T05:44:12.177Z,3.28
2019-03-10T05:46:39.668Z,3.15
2019-03-10T05:49:07.120Z,2.70
2019-03-10T05:51:34.557Z,2.73
2019-03-10T05:54:02.796Z,3.03
2019-03-10T05:56:30.237Z,2.30
2019-03-10T05:58:57.752Z,2.83
2019-03-10T06:01:25.179Z,2.33
2019-03-10T06:03:52.615Z,2.90
2019-03-10T06:06:20.101Z,2.70
2019-03-10T06:08:47.574Z,3.10
2019-03-10T06:11:15.052Z,3.30
2019-03-10T06:13:42.541Z,3.05
2019-03-10T06:16:10.009Z,2.47
2019-03-10T06:18:37.520Z,2.87
2019-03-10T06:21:04.995Z,2.90
2019-03-10T06:23:32.991Z,3.00
2019-03-10T06:26:00.455Z,2.90
2019-03-10T06:28:27.907Z,2.40
2019-03-10T06:30:56.419Z,2.13
2019-03-10T06:33:22.796Z,2.10
2019-03-10T06:35:50.256Z,2.10
2019-03-10T06:38:17.725Z,2.67
2019-03-10T06:40:45.159Z,2.00
2019-03-10T06:43:12.580Z,2.27
2019-03-10T06:45:40.032Z,2.47
2019-03-10T06:48:07.496Z,1.87
2019-03-10T06:50:35.010Z,2.17
2019-03-10T06:53:03.130Z,1.70
2019-03-10T06:55:30.607Z,1.77
2019-03-10T06:57:58.051Z,2.03
2019-03-10T07:00:25.523Z,1.63
2019-03-10T07:02:52.992Z,1.65
2019-03-10T07:05:20.467Z,1.60
2019-03-10T07:07:47.906Z,1.77
2019-03-10T07:10:15.342Z,2.00
2019-03-10T07:12:42.798Z,1.70
2019-03-10T07:15:12.075Z,2.03
2019-03-10T07:17:39.543Z,1.50
2019-03-10T07:20:08.480Z,1.60
2019-03-10T07:22:35.894Z,1.30
2019-03-10T07:25:03.365Z,1.40
2019-03-10T07:27:30.806Z,1.10
2019-03-10T07:29:58.254Z,1.13
2019-03-10T07:32:40.577Z,1.50
2019-03-10T07:35:08.899Z,1.23
2019-03-10T07:37:51.233Z,1.60
2019-03-10T07:40:24.128Z,1.47
2019-03-10T07:42:52.340Z,1.00
2019-03-10T07:45:38.616Z,1.17
2019-03-10T07:48:06.090Z,1.40
2019-03-10T07:50:35.913Z,1.30
2019-03-10T07:53:08.961Z,1.07
2019-03-10T07:55:52.239Z,1.60
2019-03-10T07:58:23.171Z,1.30
2019-03-10T08:01:06.283Z,1.30
2019-03-10T08:03:38.005Z,1.10
2019-03-10T08:06:11.322Z,1.20
2019-03-10T08:08:43.654Z,1.00
2019-03-10T08:11:14.803Z,1.20
2019-03-10T08:13:58.951Z,1.20
2019-03-10T08:16:31.347Z,1.07
2019-03-10T08:19:02.886Z,1.20
2019-03-10T08:21:36.106Z,1.30
2019-03-10T08:24:09.345Z,1.20
2019-03-10T08:26:39.741Z,1.10
2019-03-10T08:29:24.872Z,0.97
2019-03-10T08:31:57.869Z,1.13
2019-03-10T08:34:43.498Z,1.40
2019-03-10T08:37:14.785Z,1.20
2019-03-10T08:39:47.205Z,1.20
2019-03-10T08:42:20.942Z,1.40
2019-03-10T08:44:48.220Z,1.13
2019-03-10T08:47:17.935Z,1.12
2019-03-10T08:49:45.676Z,1.50
2019-03-10T08:52:12.856Z,1.47
2019-03-10T08:54:43.141Z,1.20
2019-03-10T08:57:14.024Z,1.30
2019-03-10T08:59:45.317Z,1.30
2019-03-10T09:02:28.560Z,1.20
2019-03-10T09:04:56.080Z,1.30
2019-03-10T09:07:23.514Z,1.58
2019-03-10T09:09:52.754Z,1.10
2019-03-10T09:12:20.205Z,1.53
2019-03-10T09:14:51.119Z,1.27
2019-03-10T09:17:22.480Z,1.50
2019-03-10T09:20:01.679Z,1.73
2019-03-10T09:22:29.132Z,1.80
2019-03-10T09:24:57.523Z,1.80
2019-03-10T09:27:24.940Z,2.37
2019-03-10T09:29:58.058Z,2.57
2019-03-10T09:32:31.311Z,3.30
2019-03-10T09:34:59.539Z,3.40
2019-03-10T09:37:29.508Z,4.20
2019-03-10T09:40:03.059Z,4.13
2019-03-10T09:42:31.353Z,4.60
2019-03-10T09:45:16.626Z,4.80
2019-03-10T09:47:44.330Z,4.70
2019-03-10T09:50:26.712Z,4.43
2019-03-10T09:52:59.582Z,4.80
2019-03-10T09:55:27.949Z,5.00
2019-03-10T09:58:01.448Z,5.03
2019-03-10T10:00:43.882Z,5.17
2019-03-10T10:03:26.358Z,5.00
2019-03-10T10:06:08.728Z,4.57
2019-03-10T10:08:36.668Z,4.63
2019-03-10T10:11:06.639Z,4.60
2019-03-10T10:13:54.865Z,4.37
2019-03-10T10:16:23.813Z,3.60
2019-03-10T10:18:54.266Z,3.60
2019-03-10T10:21:38.393Z,3.33
2019-03-10T10:24:05.845Z,3.03
2019-03-10T10:26:46.734Z,2.83
2019-03-10T10:29:19.749Z,2.53
2019-03-10T10:31:50.635Z,2.17
2019-03-10T10:34:33.954Z,2.00
2019-03-10T10:37:22.125Z,1.93
2019-03-10T10:40:10.241Z,1.67
2019-03-10T10:42:43.323Z,1.60
2019-03-10T10:45:27.359Z,1.43
2019-03-10T10:47:59.958Z,1.90
2019-03-10T10:50:42.331Z,1.80
2019-03-10T10:53:15.567Z,1.70
2019-03-10T10:55:53.680Z,1.98
2019-03-10T10:58:26.760Z,2.23
2019-03-10T11:00:56.024Z,2.27
2019-03-10T11:03:38.354Z,2.70
2019-03-10T11:06:06.259Z,2.10
2019-03-10T11:08:36.943Z,2.33
2019-03-10T11:11:24.200Z,1.97
2019-03-10T11:13:57.221Z,2.33
2019-03-10T11:16:27.787Z,2.77
2019-03-10T11:18:57.822Z,2.80
2019-03-10T11:21:31.095Z,2.60
2019-03-10T11:23:58.941Z,3.30
2019-03-10T11:26:27.325Z,2.53
2019-03-10T11:29:09.702Z,2.67
2019-03-10T11:31:37.979Z,3.00
2019-03-10T11:34:06.460Z,3.53
2019-03-10T11:36:34.693Z,3.20
2019-03-10T11:39:04.330Z,2.90
2019-03-10T11:41:38.936Z,3.20
2019-03-10T11:44:11.937Z,2.80
2019-03-10T11:46:39.498Z,2.77
2019-03-10T11:49:09.313Z,2.27
2019-03-10T11:51:50.631Z,2.57
2019-03-10T11:54:33.016Z,2.10
2019-03-10T11:57:06.151Z,1.97
2019-03-10T11:59:52.334Z,2.30
2019-03-10T12:02:22.673Z,2.05
2019-03-10T12:04:51.606Z,2.63
2019-03-10T12:07:20.532Z,2.83
2019-03-10T12:09:48.013Z,2.53
2019-03-10T12:12:15.470Z,3.00
2019-03-10T12:14:42.965Z,4.57
2019-03-10T12:17:10.434Z,3.35
2019-03-10T12:19:38.542Z,3.63
2019-03-10T12:22:06.868Z,3.50
2019-03-10T12:24:34.558Z,3.40
2019-03-10T12:27:01.997Z,3.90
2019-03-10T12:29:29.452Z,3.90
2019-03-10T12:31:56.964Z,2.63
2019-03-10T12:34:24.414Z,3.63
2019-03-10T12:36:51.982Z,3.07
2019-03-10T12:39:19.417Z,3.07
2019-03-10T12:41:57.518Z,3.70
2019-03-10T12:44:14.342Z,3.15
2019-03-10T12:46:42.607Z,3.33
2019-03-10T12:49:10.102Z,3.00
2019-03-10T12:51:37.564Z,2.77
2019-03-10T12:54:05.030Z,3.03
2019-03-10T12:56:32.750Z,2.77
2019-03-10T12:59:00.216Z,3.10
2019-03-10T13:01:28.650Z,3.40
2019-03-10T13:03:59.144Z,2.60
2019-03-10T13:06:24.144Z,2.50
2019-03-10T13:08:51.604Z,2.03
2019-03-10T13:11:19.316Z,2.70
2019-03-10T13:13:46.766Z,1.90
2019-03-10T13:16:15.058Z,2.05
2019-03-10T13:18:42.646Z,2.00
2019-03-10T13:21:11.240Z,2.33
2019-03-10T13:23:38.935Z,2.63
2019-03-10T13:26:06.394Z,3.40
2019-03-10T13:28:34.743Z,3.20
2019-03-10T13:31:02.808Z,3.50
2019-03-10T13:33:30.301Z,3.80
2019-03-10T13:35:57.787Z,4.90
2019-03-10T13:38:25.239Z,4.00
2019-03-10T13:40:53.085Z,3.03
2019-03-10T13:43:20.586Z,4.20
2019-03-10T13:45:48.836Z,4.03
2019-03-10T13:48:16.342Z,3.60
2019-03-10T13:50:44.862Z,2.93
2019-03-10T13:53:13.052Z,4.17
2019-03-10T13:55:40.520Z,4.10
2019-03-10T13:58:08.000Z,2.30
2019-03-10T14:00:35.512Z,2.40
2019-03-10T14:03:04.178Z,1.93
2019-03-10T14:05:31.616Z,2.40
2019-03-10T14:07:59.094Z,2.20
2019-03-10T14:10:26.521Z,2.10
2019-03-10T14:12:53.971Z,2.10
2019-03-10T14:15:21.422Z,1.77
2019-03-10T14:17:48.911Z,2.20
2019-03-10T14:20:16.336Z,2.03
2019-03-10T14:22:43.821Z,2.10
2019-03-10T14:25:11.312Z,1.65
2019-03-10T14:27:40.145Z,1.87
2019-03-10T14:30:20.335Z,2.00
2019-03-10T14:32:48.688Z,2.37
2019-03-10T14:35:16.262Z,2.00
2019-03-10T14:37:43.802Z,1.63
2019-03-10T14:40:12.017Z,2.08
2019-03-10T14:42:39.758Z,2.03
2019-03-10T14:45:10.172Z,1.80
2019-03-10T14:47:37.634Z,1.90
2019-03-10T14:50:05.091Z,1.90
2019-03-10T14:52:32.949Z,1.77
2019-03-10T14:55:00.533Z,1.50
2019-03-10T14:57:28.230Z,1.80
2019-03-10T14:59:55.710Z,1.50
2019-03-10T15:02:23.442Z,1.67
2019-03-10T15:04:51.034Z,1.55
2019-03-10T15:07:18.546Z,1.33
2019-03-10T15:09:46.237Z,1.30
2019-03-10T15:12:13.855Z,1.50
2019-03-10T15:14:41.546Z,1.52
2019-03-10T15:17:09.212Z,2.17
2019-03-10T15:19:36.752Z,1.40
2019-03-10T15:22:05.031Z,1.27
2019-03-10T15:24:32.811Z,1.30
2019-03-10T15:27:00.565Z,1.53
2019-03-10T15:29:27.988Z,1.50
2019-03-10T15:31:55.478Z,1.40
2019-03-10T15:34:22.953Z,1.57
2019-03-10T15:36:50.400Z,1.90
2019-03-10T15:39:19.680Z,1.70
2019-03-10T15:41:47.263Z,1.30
2019-03-10T15:44:14.775Z,1.10
2019-03-10T15:46:43.234Z,1.27
2019-03-10T15:49:10.857Z,1.42
2019-03-10T15:51:38.419Z,1.27
2019-03-10T15:54:06.127Z,1.10
2019-03-10T15:56:33.538Z,1.17
2019-03-10T15:59:00.996Z,1.30
2019-03-10T16:01:28.470Z,1.13
2019-03-10T16:03:55.943Z,1.10
2019-03-10T16:06:23.448Z,1.10
2019-03-10T16:08:50.934Z,0.93
2019-03-10T16:11:18.413Z,0.80
2019-03-10T16:13:45.921Z,0.77
2019-03-10T16:16:13.377Z,0.90
2019-03-10T16:18:40.850Z,0.70
2019-03-10T16:21:08.311Z,0.90
2019-03-10T16:23:35.811Z,0.80
2019-03-10T16:26:03.434Z,0.80
2019-03-10T16:28:31.782Z,0.83
2019-03-10T16:30:59.283Z,0.90
2019-03-10T16:33:26.764Z,0.80
2019-03-10T16:35:54.258Z,0.55
2019-03-10T16:38:21.725Z,0.70
2019-03-10T16:40:49.172Z,0.57
2019-03-10T16:43:16.626Z,0.55
2019-03-10T16:45:44.070Z,0.70
2019-03-10T16:48:11.575Z,0.60
2019-03-10T16:50:39.061Z,0.53
2019-03-10T16:53:06.480Z,0.57
2019-03-10T16:55:33.922Z,0.40
2019-03-10T16:58:01.381Z,0.53
2019-03-10T17:00:28.839Z,0.60
2019-03-10T17:02:56.332Z,0.80
2019-03-10T17:05:23.792Z,0.60
2019-03-10T17:07:51.254Z,0.70
2019-03-10T17:10:21.559Z,0.70
2019-03-10T17:12:49.051Z,0.52
2019-03-10T17:15:18.008Z,0.60
2019-03-10T17:17:45.503Z,0.80
2019-03-10T17:20:15.632Z,0.90
2019-03-10T17:22:43.186Z,1.47
2019-03-10T17:25:10.657Z,0.90
2019-03-10T17:27:38.575Z,0.80
2019-03-10T17:30:08.922Z,0.73
2019-03-10T17:32:37.265Z,0.95
2019-03-10T17:35:04.036Z,0.80
2019-03-10T17:37:31.502Z,0.70
2019-03-10T17:39:58.983Z,0.90
2019-03-10T17:42:27.342Z,0.80
2019-03-10T17:44:54.862Z,1.00
2019-03-10T17:47:26.526Z,1.20
2019-03-10T17:49:49.901Z,1.20
2019-03-10T17:52:17.439Z,1.00
2019-03-10T17:54:45.731Z,1.50
2019-03-10T17:57:13.350Z,1.60
2019-03-10T17:59:40.772Z,1.62
2019-03-10T18:02:09.166Z,1.60
2019-03-10T18:04:35.725Z,1.63
2019-03-10T18:07:03.351Z,1.90
2019-03-10T18:09:30.778Z,2.50
2019-03-10T18:11:58.221Z,2.83
2019-03-10T18:14:25.657Z,3.50
2019-03-10T18:16:55.407Z,3.50
2019-03-10T18:19:22.976Z,3.80
2019-03-10T18:21:50.454Z,3.63
2019-03-10T18:24:17.961Z,2.20
2019-03-10T18:26:45.412Z,2.00
2019-03-10T18:29:12.891Z,2.00
2019-03-10T18:31:40.362Z,1.92
2019-03-10T18:34:09.090Z,2.00
2019-03-10T18:36:35.630Z,1.67
2019-03-10T18:39:03.205Z,1.90
2019-03-10T18:41:30.763Z,2.10
2019-03-10T18:43:58.254Z,2.47
2019-03-10T18:46:25.727Z,1.90
2019-03-10T18:48:53.172Z,2.43
2019-03-10T18:51:20.657Z,1.70
2019-03-10T18:53:48.142Z,2.13
2019-03-10T18:56:15.603Z,2.60
2019-03-10T18:58:43.076Z,2.67
2019-03-10T19:01:10.556Z,2.33
2019-03-10T19:03:55.631Z,1.93
2019-03-10T19:06:23.168Z,1.60
2019-03-10T19:08:50.674Z,1.70
2019-03-10T19:11:18.215Z,1.40
2019-03-10T19:13:45.668Z,1.50
2019-03-10T19:16:14.275Z,1.60
2019-03-10T19:18:41.784Z,1.30
2019-03-10T19:21:09.285Z,1.30
2019-03-10T19:23:36.724Z,1.40
2019-03-10T19:26:04.994Z,1.48
2019-03-10T19:28:32.462Z,1.50
2019-03-10T19:30:59.991Z,1.37
2019-03-10T19:33:27.461Z,1.30
2019-03-10T19:35:54.994Z,1.10
2019-03-10T19:38:22.434Z,1.20
2019-03-10T19:40:50.215Z,1.50
2019-03-10T19:43:17.647Z,1.10
2019-03-10T19:45:45.132Z,1.20
2019-03-10T19:48:12.601Z,1.20
2019-03-10T19:50:40.837Z,1.27
2019-03-10T19:53:08.390Z,1.20
2019-03-10T19:55:36.841Z,1.58
2019-03-10T19:58:04.301Z,1.10
2019-03-10T20:00:31.762Z,0.95
2019-03-10T20:03:00.078Z,1.17
2019-03-10T20:05:27.586Z,1.27
2019-03-10T20:07:55.046Z,0.93
2019-03-10T20:10:22.889Z,1.07
2019-03-10T20:12:50.587Z,0.90
2019-03-10T20:15:18.155Z,1.10
2019-03-10T20:17:45.635Z,1.30
2019-03-10T20:20:13.946Z,1.30
2019-03-10T20:22:41.493Z,1.40
2019-03-10T20:25:09.871Z,1.77
2019-03-10T20:27:37.396Z,2.00
2019-03-10T20:30:05.781Z,1.87
2019-03-10T20:32:33.304Z,1.80
2019-03-10T20:35:00.776Z,2.13
2019-03-10T20:37:29.650Z,1.70
2019-03-10T20:39:57.278Z,1.23
2019-03-10T20:42:24.729Z,1.70
2019-03-10T20:44:52.292Z,1.12
2019-03-10T20:47:19.837Z,0.88
2019-03-10T20:49:47.326Z,3.22
2019-03-10T20:52:14.806Z,1.85
2019-03-10T20:54:42.255Z,0.93
2019-03-10T20:57:09.700Z,1.67
2019-03-10T20:59:38.235Z,1.30
2019-03-10T21:02:05.728Z,0.90
2019-03-10T21:04:33.200Z,1.10
2019-03-10T21:07:00.643Z,1.10
2019-03-10T21:09:28.134Z,1.10
2019-03-10T21:11:55.601Z,1.03
2019-03-10T21:14:23.140Z,0.90
2019-03-10T21:16:50.560Z,1.03
2019-03-10T21:19:18.050Z,1.40
2019-03-10T21:21:45.508Z,1.20
2019-03-10T21:24:12.967Z,0.95
2019-03-10T21:26:40.439Z,1.50
2019-03-10T21:29:08.580Z,1.50
2019-03-10T21:31:36.140Z,2.17
2019-03-10T21:34:03.882Z,2.83
2019-03-10T21:36:31.350Z,2.80
2019-03-10T21:38:58.782Z,2.60
2019-03-10T21:41:26.230Z,3.30
2019-03-10T21:43:53.811Z,3.60
2019-03-10T21:46:21.177Z,3.40
2019-03-10T21:48:48.676Z,3.10
2019-03-10T21:51:16.131Z,2.53
2019-03-10T21:53:43.609Z,2.70
2019-03-10T21:56:11.025Z,2.80
2019-03-10T21:58:39.136Z,2.20
2019-03-10T22:01:07.582Z,2.47
2019-03-10T22:03:35.136Z,2.30
2019-03-10T22:06:02.581Z,1.90
2019-03-10T22:08:30.056Z,1.93
2019-03-10T22:10:57.541Z,2.03
2019-03-10T22:13:25.014Z,1.80
2019-03-10T22:15:52.674Z,1.60
2019-03-10T22:18:20.191Z,1.90
2019-03-10T22:20:47.707Z,1.70
2019-03-10T22:23:15.146Z,1.10
2019-03-10T22:25:42.617Z,1.30
2019-03-10T22:28:10.855Z,1.40
2019-03-10T22:30:38.399Z,1.50
2019-03-10T22:33:05.827Z,1.87
2019-03-10T22:35:33.484Z,1.20
2019-03-10T22:38:00.938Z,1.40
2019-03-10T22:40:30.099Z,1.23
2019-03-10T22:42:58.404Z,1.60
2019-03-10T22:45:25.858Z,1.10
2019-03-10T22:47:53.323Z,1.60
2019-03-10T22:50:23.725Z,1.90
2019-03-10T22:52:51.199Z,1.50
2019-03-10T22:55:18.651Z,1.10
2019-03-10T22:57:46.229Z,1.35
2019-03-10T23:00:15.211Z,1.43
2019-03-10T23:02:42.726Z,2.00
2019-03-10T23:05:10.541Z,1.58
2019-03-10T23:07:38.032Z,2.13
2019-03-10T23:10:05.520Z,1.40
2019-03-10T23:12:32.949Z,1.87
2019-03-10T23:15:00.435Z,1.77
2019-03-10T23:17:27.857Z,1.50
2019-03-10T23:19:55.346Z,1.52
2019-03-10T23:22:22.803Z,1.97
2019-03-10T23:24:50.376Z,1.98
2019-03-10T23:27:17.876Z,1.80
2019-03-10T23:29:45.371Z,1.67
2019-03-10T23:32:13.208Z,1.97
2019-03-10T23:34:41.168Z,1.60
2019-03-10T23:37:08.636Z,1.93
2019-03-10T23:39:36.182Z,1.70
2019-03-10T23:42:03.664Z,2.30
2019-03-10T23:44:31.127Z,1.57
2019-03-10T23:46:58.819Z,1.87
2019-03-10T23:49:26.339Z,1.80
2019-03-10T23:51:54.749Z,2.05
2019-03-10T23:54:22.245Z,1.60
2019-03-10T23:56:49.674Z,2.40
2019-03-10T23:59:17.163Z,2.25
